sensor_id;sensor_type;location;lat;lon;timestamp;P1;durP1;ratioP1;P2;durP2;ratioP2
14187;SDS011;7175;51.978;5.330;2022-09-21T00:01:41;57.70;;;54.30;;
14187;SDS011;7175;51.978;5.330;2022-09-21T00:04:09;58.73;;;55.23;;
14187;SDS011;7175;51.978;5.330;2022-09-21T00:06:37;60.63;;;57.07;;
14187;SDS011;7175;51.978;5.330;2022-09-21T00:09:08;59.87;;;56.37;;
14187;SDS011;7175;51.978;5.330;2022-09-21T00:11:37;61.37;;;57.77;;
14187;SDS011;7175;51.978;5.330;2022-09-21T00:14:06;62.00;;;58.40;;
14187;SDS011;7175;51.978;5.330;2022-09-21T00:16:37;62.57;;;58.97;;
14187;SDS011;7175;51.978;5.330;2022-09-21T00:19:07;64.17;;;60.47;;
14187;SDS011;7175;51.978;5.330;2022-09-21T00:21:37;63.70;;;60.00;;
14187;SDS011;7175;51.978;5.330;2022-09-21T00:24:05;64.83;;;61.03;;
14187;SDS011;7175;51.978;5.330;2022-09-21T00:26:36;66.37;;;62.50;;
14187;SDS011;7175;51.978;5.330;2022-09-21T00:29:06;70.10;;;66.10;;
14187;SDS011;7175;51.978;5.330;2022-09-21T00:31:37;69.67;;;65.67;;
14187;SDS011;7175;51.978;5.330;2022-09-21T00:34:08;69.90;;;65.90;;
14187;SDS011;7175;51.978;5.330;2022-09-21T00:36:36;72.20;;;68.10;;
14187;SDS011;7175;51.978;5.330;2022-09-21T00:39:05;73.40;;;69.20;;
14187;SDS011;7175;51.978;5.330;2022-09-21T00:41:34;74.93;;;70.63;;
14187;SDS011;7175;51.978;5.330;2022-09-21T00:46:56;74.30;;;70.10;;
14187;SDS011;7175;51.978;5.330;2022-09-21T00:49:29;77.10;;;72.80;;
14187;SDS011;7175;51.978;5.330;2022-09-21T00:52:00;76.27;;;71.97;;
14187;SDS011;7175;51.978;5.330;2022-09-21T00:54:33;78.00;;;73.60;;
14187;SDS011;7175;51.978;5.330;2022-09-21T00:57:07;81.40;;;76.90;;
14187;SDS011;7175;51.978;5.330;2022-09-21T00:59:37;82.50;;;78.00;;
14187;SDS011;7175;51.978;5.330;2022-09-21T01:02:08;81.53;;;77.03;;
14187;SDS011;7175;51.978;5.330;2022-09-21T01:04:37;84.13;;;79.27;;
14187;SDS011;7175;51.978;5.330;2022-09-21T01:07:06;81.27;;;76.77;;
14187;SDS011;7175;51.978;5.330;2022-09-21T01:09:45;81.97;;;77.47;;
14187;SDS011;7175;51.978;5.330;2022-09-21T01:12:24;82.57;;;77.97;;
14187;SDS011;7175;51.978;5.330;2022-09-21T01:15:23;85.43;;;80.73;;
14187;SDS011;7175;51.978;5.330;2022-09-21T01:18:08;86.40;;;81.70;;
14187;SDS011;7175;51.978;5.330;2022-09-21T01:20:49;86.73;;;81.93;;
14187;SDS011;7175;51.978;5.330;2022-09-21T01:23:41;86.97;;;82.17;;
14187;SDS011;7175;51.978;5.330;2022-09-21T01:26:29;89.13;;;84.23;;
14187;SDS011;7175;51.978;5.330;2022-09-21T01:29:14;88.90;;;84.00;;
14187;SDS011;7175;51.978;5.330;2022-09-21T01:31:49;89.00;;;84.10;;
14187;SDS011;7175;51.978;5.330;2022-09-21T01:34:24;90.40;;;85.40;;
14187;SDS011;7175;51.978;5.330;2022-09-21T01:36:57;90.73;;;85.70;;
14187;SDS011;7175;51.978;5.330;2022-09-21T01:39:32;91.47;;;86.37;;
14187;SDS011;7175;51.978;5.330;2022-09-21T01:42:02;91.70;;;86.70;;
14187;SDS011;7175;51.978;5.330;2022-09-21T01:44:36;92.17;;;87.07;;
14187;SDS011;7175;51.978;5.330;2022-09-21T01:47:08;92.83;;;87.73;;
14187;SDS011;7175;51.978;5.330;2022-09-21T01:49:40;92.93;;;87.83;;
14187;SDS011;7175;51.978;5.330;2022-09-21T01:52:12;94.17;;;88.97;;
14187;SDS011;7175;51.978;5.330;2022-09-21T01:54:46;94.17;;;88.97;;
14187;SDS011;7175;51.978;5.330;2022-09-21T01:57:20;95.37;;;90.10;;
14187;SDS011;7175;51.978;5.330;2022-09-21T01:59:56;95.37;;;90.17;;
14187;SDS011;7175;51.978;5.330;2022-09-21T02:02:28;95.10;;;89.80;;
14187;SDS011;7175;51.978;5.330;2022-09-21T02:05:03;95.13;;;89.93;;
14187;SDS011;7175;51.978;5.330;2022-09-21T02:07:32;94.20;;;89.00;;
14187;SDS011;7175;51.978;5.330;2022-09-21T02:10:01;94.50;;;89.30;;
14187;SDS011;7175;51.978;5.330;2022-09-21T02:12:30;95.97;;;90.67;;
14187;SDS011;7175;51.978;5.330;2022-09-21T02:15:01;96.13;;;90.73;;
14187;SDS011;7175;51.978;5.330;2022-09-21T02:17:39;98.00;;;92.60;;
14187;SDS011;7175;51.978;5.330;2022-09-21T02:20:15;98.90;;;93.40;;
14187;SDS011;7175;51.978;5.330;2022-09-21T02:22:53;99.50;;;94.00;;
14187;SDS011;7175;51.978;5.330;2022-09-21T02:25:38;99.63;;;94.13;;
14187;SDS011;7175;51.978;5.330;2022-09-21T02:28:14;100.27;;;94.73;;
14187;SDS011;7175;51.978;5.330;2022-09-21T02:30:56;100.67;;;95.07;;
14187;SDS011;7175;51.978;5.330;2022-09-21T02:33:36;99.47;;;93.87;;
14187;SDS011;7175;51.978;5.330;2022-09-21T02:36:16;102.63;;;96.83;;
14187;SDS011;7175;51.978;5.330;2022-09-21T02:38:50;100.30;;;94.70;;
14187;SDS011;7175;51.978;5.330;2022-09-21T02:41:22;102.57;;;96.87;;
14187;SDS011;7175;51.978;5.330;2022-09-21T02:43:57;102.63;;;96.93;;
14187;SDS011;7175;51.978;5.330;2022-09-21T02:46:33;104.63;;;98.77;;
14187;SDS011;7175;51.978;5.330;2022-09-21T02:49:08;104.33;;;98.53;;
14187;SDS011;7175;51.978;5.330;2022-09-21T02:51:43;104.43;;;98.53;;
14187;SDS011;7175;51.978;5.330;2022-09-21T02:54:21;105.50;;;99.50;;
14187;SDS011;7175;51.978;5.330;2022-09-21T02:56:53;104.00;;;98.10;;
14187;SDS011;7175;51.978;5.330;2022-09-21T02:59:22;104.37;;;98.37;;
14187;SDS011;7175;51.978;5.330;2022-09-21T03:01:51;104.50;;;98.50;;
14187;SDS011;7175;51.978;5.330;2022-09-21T03:04:21;106.40;;;100.40;;
14187;SDS011;7175;51.978;5.330;2022-09-21T03:06:51;107.23;;;101.23;;
14187;SDS011;7175;51.978;5.330;2022-09-21T03:09:19;107.23;;;101.23;;
14187;SDS011;7175;51.978;5.330;2022-09-21T03:11:49;108.07;;;102.07;;
14187;SDS011;7175;51.978;5.330;2022-09-21T03:14:23;108.77;;;102.60;;
14187;SDS011;7175;51.978;5.330;2022-09-21T03:16:53;111.07;;;104.87;;
14187;SDS011;7175;51.978;5.330;2022-09-21T03:19:26;111.40;;;105.20;;
14187;SDS011;7175;51.978;5.330;2022-09-21T03:21:55;110.57;;;104.37;;
14187;SDS011;7175;51.978;5.330;2022-09-21T03:24:25;109.80;;;103.60;;
14187;SDS011;7175;51.978;5.330;2022-09-21T03:27:10;109.50;;;103.40;;
14187;SDS011;7175;51.978;5.330;2022-09-21T03:29:46;111.07;;;104.90;;
14187;SDS011;7175;51.978;5.330;2022-09-21T03:32:23;109.07;;;102.93;;
14187;SDS011;7175;51.978;5.330;2022-09-21T03:34:51;108.50;;;102.37;;
14187;SDS011;7175;51.978;5.330;2022-09-21T03:37:22;108.40;;;102.30;;
14187;SDS011;7175;51.978;5.330;2022-09-21T03:39:50;109.17;;;103.07;;
14187;SDS011;7175;51.978;5.330;2022-09-21T03:42:18;110.87;;;104.67;;
14187;SDS011;7175;51.978;5.330;2022-09-21T03:44:48;110.67;;;104.57;;
14187;SDS011;7175;51.978;5.330;2022-09-21T03:47:16;111.47;;;105.37;;
14187;SDS011;7175;51.978;5.330;2022-09-21T03:49:51;113.10;;;106.70;;
14187;SDS011;7175;51.978;5.330;2022-09-21T03:52:25;111.03;;;104.93;;
14187;SDS011;7175;51.978;5.330;2022-09-21T03:57:51;115.17;;;108.87;;
14187;SDS011;7175;51.978;5.330;2022-09-21T04:00:23;114.50;;;108.20;;
14187;SDS011;7175;51.978;5.330;2022-09-21T04:02:52;111.00;;;104.70;;
14187;SDS011;7175;51.978;5.330;2022-09-21T04:05:22;113.30;;;107.00;;
14187;SDS011;7175;51.978;5.330;2022-09-21T04:07:50;112.30;;;106.10;;
14187;SDS011;7175;51.978;5.330;2022-09-21T04:10:22;112.13;;;105.93;;
14187;SDS011;7175;51.978;5.330;2022-09-21T04:13:00;109.00;;;102.90;;
14187;SDS011;7175;51.978;5.330;2022-09-21T04:15:31;109.87;;;103.73;;
14187;SDS011;7175;51.978;5.330;2022-09-21T04:18:00;108.40;;;102.23;;
14187;SDS011;7175;51.978;5.330;2022-09-21T04:20:30;110.63;;;104.33;;
14187;SDS011;7175;51.978;5.330;2022-09-21T04:22:59;115.33;;;108.93;;
14187;SDS011;7175;51.978;5.330;2022-09-21T04:25:28;115.93;;;109.53;;
14187;SDS011;7175;51.978;5.330;2022-09-21T04:27:57;114.07;;;107.67;;
14187;SDS011;7175;51.978;5.330;2022-09-21T04:30:25;115.10;;;108.70;;
14187;SDS011;7175;51.978;5.330;2022-09-21T04:32:54;110.50;;;104.30;;
14187;SDS011;7175;51.978;5.330;2022-09-21T04:35:23;110.47;;;104.27;;
14187;SDS011;7175;51.978;5.330;2022-09-21T04:37:54;110.37;;;104.20;;
14187;SDS011;7175;51.978;5.330;2022-09-21T04:40:23;108.97;;;102.87;;
14187;SDS011;7175;51.978;5.330;2022-09-21T04:42:51;109.53;;;103.33;;
14187;SDS011;7175;51.978;5.330;2022-09-21T04:45:21;114.17;;;107.77;;
14187;SDS011;7175;51.978;5.330;2022-09-21T04:47:52;109.27;;;103.07;;
14187;SDS011;7175;51.978;5.330;2022-09-21T04:50:22;112.13;;;104.37;;
14187;SDS011;7175;51.978;5.330;2022-09-21T04:52:50;111.50;;;105.10;;
14187;SDS011;7175;51.978;5.330;2022-09-21T04:55:20;111.50;;;105.10;;
14187;SDS011;7175;51.978;5.330;2022-09-21T04:57:49;111.17;;;104.67;;
14187;SDS011;7175;51.978;5.330;2022-09-21T05:00:18;110.63;;;104.13;;
14187;SDS011;7175;51.978;5.330;2022-09-21T05:02:47;113.17;;;106.67;;
14187;SDS011;7175;51.978;5.330;2022-09-21T05:05:16;113.87;;;107.47;;
14187;SDS011;7175;51.978;5.330;2022-09-21T05:07:45;114.80;;;108.10;;
14187;SDS011;7175;51.978;5.330;2022-09-21T05:10:15;116.23;;;109.73;;
14187;SDS011;7175;51.978;5.330;2022-09-21T05:12:45;118.17;;;111.57;;
14187;SDS011;7175;51.978;5.330;2022-09-21T05:15:14;121.53;;;114.93;;
14187;SDS011;7175;51.978;5.330;2022-09-21T05:17:49;118.43;;;111.83;;
14187;SDS011;7175;51.978;5.330;2022-09-21T05:20:19;118.30;;;111.70;;
14187;SDS011;7175;51.978;5.330;2022-09-21T05:22:48;116.20;;;109.70;;
14187;SDS011;7175;51.978;5.330;2022-09-21T05:25:22;112.10;;;105.70;;
14187;SDS011;7175;51.978;5.330;2022-09-21T05:27:51;111.80;;;105.40;;
14187;SDS011;7175;51.978;5.330;2022-09-21T05:30:22;113.13;;;106.63;;
14187;SDS011;7175;51.978;5.330;2022-09-21T05:32:53;111.67;;;105.23;;
14187;SDS011;7175;51.978;5.330;2022-09-21T05:35:32;108.53;;;101.93;;
14187;SDS011;7175;51.978;5.330;2022-09-21T05:38:05;108.90;;;102.30;;
14187;SDS011;7175;51.978;5.330;2022-09-21T05:40:40;106.63;;;100.13;;
14187;SDS011;7175;51.978;5.330;2022-09-21T05:43:10;105.63;;;99.13;;
14187;SDS011;7175;51.978;5.330;2022-09-21T05:45:51;101.90;;;95.50;;
14187;SDS011;7175;51.978;5.330;2022-09-21T05:48:26;101.57;;;95.17;;
14187;SDS011;7175;51.978;5.330;2022-09-21T05:51:03;99.40;;;93.10;;
14187;SDS011;7175;51.978;5.330;2022-09-21T05:53:45;99.90;;;93.50;;
14187;SDS011;7175;51.978;5.330;2022-09-21T05:56:22;104.67;;;97.97;;
14187;SDS011;7175;51.978;5.330;2022-09-21T05:59:03;107.57;;;100.77;;
14187;SDS011;7175;51.978;5.330;2022-09-21T06:04:27;113.73;;;106.57;;
14187;SDS011;7175;51.978;5.330;2022-09-21T06:07:02;107.43;;;100.50;;
14187;SDS011;7175;51.978;5.330;2022-09-21T06:12:14;113.20;;;105.77;;
14187;SDS011;7175;51.978;5.330;2022-09-21T06:14:44;118.17;;;110.47;;
14187;SDS011;7175;51.978;5.330;2022-09-21T06:17:12;120.07;;;112.07;;
14187;SDS011;7175;51.978;5.330;2022-09-21T06:19:42;118.03;;;110.33;;
14187;SDS011;7175;51.978;5.330;2022-09-21T06:22:16;119.60;;;111.90;;
14187;SDS011;7175;51.978;5.330;2022-09-21T06:24:47;125.20;;;117.20;;
14187;SDS011;7175;51.978;5.330;2022-09-21T06:27:24;124.80;;;116.80;;
14187;SDS011;7175;51.978;5.330;2022-09-21T06:29:53;121.23;;;113.33;;
14187;SDS011;7175;51.978;5.330;2022-09-21T06:32:23;117.97;;;110.27;;
14187;SDS011;7175;51.978;5.330;2022-09-21T06:34:51;115.13;;;107.63;;
14187;SDS011;7175;51.978;5.330;2022-09-21T06:37:22;116.50;;;108.70;;
14187;SDS011;7175;51.978;5.330;2022-09-21T06:39:52;118.40;;;110.40;;
14187;SDS011;7175;51.978;5.330;2022-09-21T06:42:23;119.37;;;111.47;;
14187;SDS011;7175;51.978;5.330;2022-09-21T06:44:55;118.40;;;110.50;;
14187;SDS011;7175;51.978;5.330;2022-09-21T06:47:25;120.40;;;112.40;;
14187;SDS011;7175;51.978;5.330;2022-09-21T06:49:54;118.57;;;110.73;;
14187;SDS011;7175;51.978;5.330;2022-09-21T06:52:25;119.00;;;111.10;;
14187;SDS011;7175;51.978;5.330;2022-09-21T06:54:54;121.40;;;113.50;;
14187;SDS011;7175;51.978;5.330;2022-09-21T06:57:26;123.07;;;114.77;;
14187;SDS011;7175;51.978;5.330;2022-09-21T06:59:57;114.87;;;107.37;;
14187;SDS011;7175;51.978;5.330;2022-09-21T07:02:27;116.67;;;109.17;;
14187;SDS011;7175;51.978;5.330;2022-09-21T07:04:56;119.80;;;112.20;;
14187;SDS011;7175;51.978;5.330;2022-09-21T07:07:28;121.43;;;113.70;;
14187;SDS011;7175;51.978;5.330;2022-09-21T07:09:57;118.33;;;110.77;;
14187;SDS011;7175;51.978;5.330;2022-09-21T07:12:42;118.03;;;110.53;;
14187;SDS011;7175;51.978;5.330;2022-09-21T07:15:13;119.57;;;112.07;;
14187;SDS011;7175;51.978;5.330;2022-09-21T07:17:43;120.20;;;112.50;;
14187;SDS011;7175;51.978;5.330;2022-09-21T07:20:26;118.57;;;111.07;;
14187;SDS011;7175;51.978;5.330;2022-09-21T07:23:08;116.60;;;109.20;;
14187;SDS011;7175;51.978;5.330;2022-09-21T07:25:39;117.23;;;109.73;;
14187;SDS011;7175;51.978;5.330;2022-09-21T07:28:18;120.07;;;112.47;;
14187;SDS011;7175;51.978;5.330;2022-09-21T07:30:49;113.63;;;106.53;;
14187;SDS011;7175;51.978;5.330;2022-09-21T07:33:17;111.30;;;104.20;;
14187;SDS011;7175;51.978;5.330;2022-09-21T07:35:53;114.47;;;107.33;;
14187;SDS011;7175;51.978;5.330;2022-09-21T07:38:22;115.87;;;108.57;;
14187;SDS011;7175;51.978;5.330;2022-09-21T07:40:54;116.37;;;109.03;;
14187;SDS011;7175;51.978;5.330;2022-09-21T07:43:22;115.27;;;107.87;;
14187;SDS011;7175;51.978;5.330;2022-09-21T07:45:53;112.80;;;105.57;;
14187;SDS011;7175;51.978;5.330;2022-09-21T07:48:23;111.90;;;104.80;;
14187;SDS011;7175;51.978;5.330;2022-09-21T07:50:52;110.77;;;103.87;;
14187;SDS011;7175;51.978;5.330;2022-09-21T07:53:23;106.27;;;99.67;;
14187;SDS011;7175;51.978;5.330;2022-09-21T07:55:59;103.67;;;97.37;;
14187;SDS011;7175;51.978;5.330;2022-09-21T07:58:29;100.43;;;94.23;;
14187;SDS011;7175;51.978;5.330;2022-09-21T08:01:16;101.27;;;95.27;;
14187;SDS011;7175;51.978;5.330;2022-09-21T08:03:47;93.57;;;88.07;;
14187;SDS011;7175;51.978;5.330;2022-09-21T08:06:24;95.67;;;90.17;;
14187;SDS011;7175;51.978;5.330;2022-09-21T08:08:55;85.27;;;80.27;;
14187;SDS011;7175;51.978;5.330;2022-09-21T08:11:25;78.70;;;74.00;;
14187;SDS011;7175;51.978;5.330;2022-09-21T08:13:56;68.57;;;64.37;;
14187;SDS011;7175;51.978;5.330;2022-09-21T08:16:28;66.53;;;62.43;;
14187;SDS011;7175;51.978;5.330;2022-09-21T08:19:01;62.70;;;58.80;;
14187;SDS011;7175;51.978;5.330;2022-09-21T08:21:30;57.10;;;53.50;;
14187;SDS011;7175;51.978;5.330;2022-09-21T08:24:01;50.10;;;46.80;;
14187;SDS011;7175;51.978;5.330;2022-09-21T08:26:30;38.30;;;35.60;;
14187;SDS011;7175;51.978;5.330;2022-09-21T08:29:05;35.00;;;32.50;;
14187;SDS011;7175;51.978;5.330;2022-09-21T08:31:35;31.50;;;29.13;;
14187;SDS011;7175;51.978;5.330;2022-09-21T08:34:05;28.33;;;26.13;;
14187;SDS011;7175;51.978;5.330;2022-09-21T08:36:33;26.10;;;24.00;;
14187;SDS011;7175;51.978;5.330;2022-09-21T08:39:05;24.50;;;22.50;;
14187;SDS011;7175;51.978;5.330;2022-09-21T08:41:47;22.73;;;20.83;;
14187;SDS011;7175;51.978;5.330;2022-09-21T08:44:36;22.43;;;20.53;;
14187;SDS011;7175;51.978;5.330;2022-09-21T08:47:10;21.40;;;19.60;;
14187;SDS011;7175;51.978;5.330;2022-09-21T08:49:50;21.80;;;20.00;;
14187;SDS011;7175;51.978;5.330;2022-09-21T08:52:20;21.47;;;19.67;;
14187;SDS011;7175;51.978;5.330;2022-09-21T08:54:53;21.63;;;19.83;;
14187;SDS011;7175;51.978;5.330;2022-09-21T08:57:25;22.90;;;21.00;;
14187;SDS011;7175;51.978;5.330;2022-09-21T08:59:58;22.47;;;20.57;;
14187;SDS011;7175;51.978;5.330;2022-09-21T09:02:37;21.93;;;20.13;;
14187;SDS011;7175;51.978;5.330;2022-09-21T09:05:20;21.60;;;19.80;;
14187;SDS011;7175;51.978;5.330;2022-09-21T09:08:12;21.73;;;19.93;;
14187;SDS011;7175;51.978;5.330;2022-09-21T09:11:09;21.47;;;19.67;;
14187;SDS011;7175;51.978;5.330;2022-09-21T09:13:52;20.73;;;19.03;;
14187;SDS011;7175;51.978;5.330;2022-09-21T09:16:33;20.17;;;18.57;;
14187;SDS011;7175;51.978;5.330;2022-09-21T09:19:10;20.20;;;18.60;;
14187;SDS011;7175;51.978;5.330;2022-09-21T09:21:48;20.27;;;18.67;;
14187;SDS011;7175;51.978;5.330;2022-09-21T09:24:18;20.90;;;19.20;;
14187;SDS011;7175;51.978;5.330;2022-09-21T09:26:51;20.60;;;18.90;;
14187;SDS011;7175;51.978;5.330;2022-09-21T09:32:01;20.17;;;18.57;;
14187;SDS011;7175;51.978;5.330;2022-09-21T09:34:33;20.20;;;18.60;;
14187;SDS011;7175;51.978;5.330;2022-09-21T09:37:09;20.00;;;18.40;;
14187;SDS011;7175;51.978;5.330;2022-09-21T09:39:39;20.63;;;18.93;;
14187;SDS011;7175;51.978;5.330;2022-09-21T09:42:20;20.60;;;18.90;;
14187;SDS011;7175;51.978;5.330;2022-09-21T09:45:05;21.20;;;19.40;;
14187;SDS011;7175;51.978;5.330;2022-09-21T09:47:55;20.77;;;19.07;;
14187;SDS011;7175;51.978;5.330;2022-09-21T09:50:32;20.30;;;18.60;;
14187;SDS011;7175;51.978;5.330;2022-09-21T09:53:04;20.27;;;18.57;;
14187;SDS011;7175;51.978;5.330;2022-09-21T09:55:51;20.17;;;18.57;;
14187;SDS011;7175;51.978;5.330;2022-09-21T09:58:27;20.43;;;18.73;;
14187;SDS011;7175;51.978;5.330;2022-09-21T10:01:04;20.60;;;18.90;;
14187;SDS011;7175;51.978;5.330;2022-09-21T10:03:34;19.70;;;18.10;;
14187;SDS011;7175;51.978;5.330;2022-09-21T10:06:07;19.60;;;18.00;;
14187;SDS011;7175;51.978;5.330;2022-09-21T10:08:43;19.73;;;18.13;;
14187;SDS011;7175;51.978;5.330;2022-09-21T10:13:51;19.57;;;17.97;;
14187;SDS011;7175;51.978;5.330;2022-09-21T10:16:22;19.97;;;18.37;;
14187;SDS011;7175;51.978;5.330;2022-09-21T10:18:52;19.90;;;18.30;;
14187;SDS011;7175;51.978;5.330;2022-09-21T10:21:26;20.00;;;18.40;;
14187;SDS011;7175;51.978;5.330;2022-09-21T10:24:12;19.70;;;18.10;;
14187;SDS011;7175;51.978;5.330;2022-09-21T10:26:47;19.60;;;18.00;;
14187;SDS011;7175;51.978;5.330;2022-09-21T10:29:28;19.43;;;17.83;;
14187;SDS011;7175;51.978;5.330;2022-09-21T10:31:59;19.73;;;18.13;;
14187;SDS011;7175;51.978;5.330;2022-09-21T10:34:31;19.60;;;18.00;;
14187;SDS011;7175;51.978;5.330;2022-09-21T10:37:23;19.80;;;18.20;;
14187;SDS011;7175;51.978;5.330;2022-09-21T10:39:56;19.67;;;18.07;;
14187;SDS011;7175;51.978;5.330;2022-09-21T10:42:24;19.57;;;17.97;;
14187;SDS011;7175;51.978;5.330;2022-09-21T10:45:05;19.53;;;17.93;;
14187;SDS011;7175;51.978;5.330;2022-09-21T10:47:42;19.73;;;18.13;;
14187;SDS011;7175;51.978;5.330;2022-09-21T10:50:21;19.50;;;17.90;;
14187;SDS011;7175;51.978;5.330;2022-09-21T10:52:57;20.10;;;18.43;;
14187;SDS011;7175;51.978;5.330;2022-09-21T10:55:30;19.50;;;17.90;;
14187;SDS011;7175;51.978;5.330;2022-09-21T10:58:00;19.37;;;17.77;;
14187;SDS011;7175;51.978;5.330;2022-09-21T11:00:30;19.33;;;17.73;;
14187;SDS011;7175;51.978;5.330;2022-09-21T11:06:10;19.10;;;17.60;;
14187;SDS011;7175;51.978;5.330;2022-09-21T11:08:47;19.10;;;17.60;;
14187;SDS011;7175;51.978;5.330;2022-09-21T11:11:40;19.20;;;17.60;;
14187;SDS011;7175;51.978;5.330;2022-09-21T11:14:18;19.10;;;17.50;;
14187;SDS011;7175;51.978;5.330;2022-09-21T11:17:06;19.83;;;18.23;;
14187;SDS011;7175;51.978;5.330;2022-09-21T11:19:40;20.87;;;19.07;;
14187;SDS011;7175;51.978;5.330;2022-09-21T11:22:15;19.10;;;17.60;;
14187;SDS011;7175;51.978;5.330;2022-09-21T11:24:53;19.60;;;18.00;;
14187;SDS011;7175;51.978;5.330;2022-09-21T11:27:30;19.53;;;18.03;;
14187;SDS011;7175;51.978;5.330;2022-09-21T11:30:05;19.33;;;17.83;;
14187;SDS011;7175;51.978;5.330;2022-09-21T11:32:44;19.37;;;17.87;;
14187;SDS011;7175;51.978;5.330;2022-09-21T11:38:18;18.50;;;17.00;;
14187;SDS011;7175;51.978;5.330;2022-09-21T11:41:05;18.60;;;17.10;;
14187;SDS011;7175;51.978;5.330;2022-09-21T11:43:46;18.63;;;17.13;;
14187;SDS011;7175;51.978;5.330;2022-09-21T11:46:30;19.27;;;17.77;;
14187;SDS011;7175;51.978;5.330;2022-09-21T11:52:03;19.37;;;17.77;;
14187;SDS011;7175;51.978;5.330;2022-09-21T11:54:50;18.80;;;17.30;;
14187;SDS011;7175;51.978;5.330;2022-09-21T11:57:34;19.43;;;17.83;;
14187;SDS011;7175;51.978;5.330;2022-09-21T12:00:08;18.60;;;17.10;;
14187;SDS011;7175;51.978;5.330;2022-09-21T12:03:03;18.47;;;17.07;;
14187;SDS011;7175;51.978;5.330;2022-09-21T12:05:56;18.13;;;16.73;;
14187;SDS011;7175;51.978;5.330;2022-09-21T12:11:45;18.70;;;17.30;;
14187;SDS011;7175;51.978;5.330;2022-09-21T12:14:21;18.47;;;17.07;;
14187;SDS011;7175;51.978;5.330;2022-09-21T12:17:02;18.17;;;16.77;;
14187;SDS011;7175;51.978;5.330;2022-09-21T12:19:37;18.60;;;17.20;;
14187;SDS011;7175;51.978;5.330;2022-09-21T12:22:12;19.07;;;17.67;;
14187;SDS011;7175;51.978;5.330;2022-09-21T12:24:45;19.00;;;17.60;;
14187;SDS011;7175;51.978;5.330;2022-09-21T12:27:25;19.40;;;17.90;;
14187;SDS011;7175;51.978;5.330;2022-09-21T12:30:01;18.77;;;17.37;;
14187;SDS011;7175;51.978;5.330;2022-09-21T12:32:38;18.90;;;17.40;;
14187;SDS011;7175;51.978;5.330;2022-09-21T12:35:17;19.23;;;17.73;;
14187;SDS011;7175;51.978;5.330;2022-09-21T12:37:50;19.23;;;17.73;;
14187;SDS011;7175;51.978;5.330;2022-09-21T12:40:26;18.83;;;17.33;;
14187;SDS011;7175;51.978;5.330;2022-09-21T12:43:02;18.47;;;17.07;;
14187;SDS011;7175;51.978;5.330;2022-09-21T12:45:43;18.77;;;17.37;;
14187;SDS011;7175;51.978;5.330;2022-09-21T12:48:16;18.70;;;17.20;;
14187;SDS011;7175;51.978;5.330;2022-09-21T12:50:53;18.30;;;16.90;;
14187;SDS011;7175;51.978;5.330;2022-09-21T12:53:33;18.83;;;17.33;;
14187;SDS011;7175;51.978;5.330;2022-09-21T12:56:05;18.70;;;17.20;;
14187;SDS011;7175;51.978;5.330;2022-09-21T12:58:47;18.97;;;17.47;;
14187;SDS011;7175;51.978;5.330;2022-09-21T13:01:32;18.77;;;17.27;;
14187;SDS011;7175;51.978;5.330;2022-09-21T13:07:19;18.57;;;17.07;;
14187;SDS011;7175;51.978;5.330;2022-09-21T13:10:14;22.73;;;17.87;;
14187;SDS011;7175;51.978;5.330;2022-09-21T13:12:52;18.80;;;17.20;;
14187;SDS011;7175;51.978;5.330;2022-09-21T13:15:26;17.70;;;16.30;;
14187;SDS011;7175;51.978;5.330;2022-09-21T13:18:01;18.20;;;16.80;;
14187;SDS011;7175;51.978;5.330;2022-09-21T13:20:34;18.53;;;17.03;;
14187;SDS011;7175;51.978;5.330;2022-09-21T13:23:12;18.27;;;16.87;;
14187;SDS011;7175;51.978;5.330;2022-09-21T13:25:45;18.40;;;17.00;;
14187;SDS011;7175;51.978;5.330;2022-09-21T13:28:21;18.80;;;17.30;;
14187;SDS011;7175;51.978;5.330;2022-09-21T13:34:22;18.53;;;17.03;;
14187;SDS011;7175;51.978;5.330;2022-09-21T13:46:46;18.90;;;17.30;;
14187;SDS011;7175;51.978;5.330;2022-09-21T13:49:23;18.47;;;16.97;;
14187;SDS011;7175;51.978;5.330;2022-09-21T13:51:57;18.73;;;17.23;;
14187;SDS011;7175;51.978;5.330;2022-09-21T13:54:29;18.57;;;17.07;;
14187;SDS011;7175;51.978;5.330;2022-09-21T13:57:04;19.27;;;17.67;;
14187;SDS011;7175;51.978;5.330;2022-09-21T14:00:03;19.20;;;17.50;;
14187;SDS011;7175;51.978;5.330;2022-09-21T14:02:57;18.73;;;17.13;;
14187;SDS011;7175;51.978;5.330;2022-09-21T14:05:32;18.10;;;16.60;;
14187;SDS011;7175;51.978;5.330;2022-09-21T14:08:05;18.30;;;16.80;;
14187;SDS011;7175;51.978;5.330;2022-09-21T14:10:49;18.40;;;16.90;;
14187;SDS011;7175;51.978;5.330;2022-09-21T14:13:25;18.70;;;17.20;;
14187;SDS011;7175;51.978;5.330;2022-09-21T14:22:39;18.70;;;17.10;;
14187;SDS011;7175;51.978;5.330;2022-09-21T14:25:25;18.50;;;17.00;;
14187;SDS011;7175;51.978;5.330;2022-09-21T14:28:02;18.63;;;17.10;;
14187;SDS011;7175;51.978;5.330;2022-09-21T14:30:37;18.70;;;17.20;;
14187;SDS011;7175;51.978;5.330;2022-09-21T14:33:21;18.50;;;17.00;;
14187;SDS011;7175;51.978;5.330;2022-09-21T14:35:54;18.67;;;17.17;;
14187;SDS011;7175;51.978;5.330;2022-09-21T14:38:43;18.40;;;16.87;;
14187;SDS011;7175;51.978;5.330;2022-09-21T14:41:26;19.10;;;17.50;;
14187;SDS011;7175;51.978;5.330;2022-09-21T14:44:00;19.17;;;17.57;;
14187;SDS011;7175;51.978;5.330;2022-09-21T14:46:42;19.07;;;17.47;;
14187;SDS011;7175;51.978;5.330;2022-09-21T14:49:35;19.10;;;17.50;;
14187;SDS011;7175;51.978;5.330;2022-09-21T14:52:21;19.30;;;17.70;;
14187;SDS011;7175;51.978;5.330;2022-09-21T14:55:05;19.37;;;17.77;;
14187;SDS011;7175;51.978;5.330;2022-09-21T14:57:57;19.43;;;17.83;;
14187;SDS011;7175;51.978;5.330;2022-09-21T15:00:43;18.80;;;17.20;;
14187;SDS011;7175;51.978;5.330;2022-09-21T15:03:31;18.90;;;17.30;;
14187;SDS011;7175;51.978;5.330;2022-09-21T15:06:15;19.50;;;17.90;;
14187;SDS011;7175;51.978;5.330;2022-09-21T15:09:17;18.93;;;17.33;;
14187;SDS011;7175;51.978;5.330;2022-09-21T15:12:20;18.83;;;17.23;;
14187;SDS011;7175;51.978;5.330;2022-09-21T15:15:04;18.63;;;17.13;;
14187;SDS011;7175;51.978;5.330;2022-09-21T15:17:49;18.70;;;17.20;;
14187;SDS011;7175;51.978;5.330;2022-09-21T15:20:26;19.27;;;17.67;;
14187;SDS011;7175;51.978;5.330;2022-09-21T15:22:57;19.17;;;17.57;;
14187;SDS011;7175;51.978;5.330;2022-09-21T15:25:27;18.73;;;17.23;;
14187;SDS011;7175;51.978;5.330;2022-09-21T15:28:04;19.60;;;18.00;;
14187;SDS011;7175;51.978;5.330;2022-09-21T15:30:39;19.33;;;17.73;;
14187;SDS011;7175;51.978;5.330;2022-09-21T15:33:12;19.20;;;17.70;;
14187;SDS011;7175;51.978;5.330;2022-09-21T15:35:44;18.90;;;17.40;;
14187;SDS011;7175;51.978;5.330;2022-09-21T15:38:25;18.67;;;17.17;;
14187;SDS011;7175;51.978;5.330;2022-09-21T15:40:54;18.80;;;17.20;;
14187;SDS011;7175;51.978;5.330;2022-09-21T15:43:30;19.07;;;17.47;;
14187;SDS011;7175;51.978;5.330;2022-09-21T15:51:33;18.70;;;17.10;;
14187;SDS011;7175;51.978;5.330;2022-09-21T15:54:15;18.40;;;16.90;;
14187;SDS011;7175;51.978;5.330;2022-09-21T15:56:56;18.63;;;17.03;;
14187;SDS011;7175;51.978;5.330;2022-09-21T15:59:39;18.63;;;17.10;;
14187;SDS011;7175;51.978;5.330;2022-09-21T16:02:16;18.70;;;17.10;;
14187;SDS011;7175;51.978;5.330;2022-09-21T16:04:48;18.70;;;17.10;;
14187;SDS011;7175;51.978;5.330;2022-09-21T16:07:25;19.97;;;18.07;;
14187;SDS011;7175;51.978;5.330;2022-09-21T16:13:03;18.57;;;16.97;;